sensor_id;sensor_type;location;lat;lon;timestamp;pressure;altitude;pressure_sealevel;temperature;humidity
58473;BME280;44775;51.564;5.460;2023-02-17T00:02:16;101723.88;;;9.59;100.00
58473;BME280;44775;51.564;5.460;2023-02-17T00:04:41;101725.53;;;9.60;100.00
58473;BME280;44775;51.564;5.460;2023-02-17T00:07:06;101719.47;;;9.68;100.00
58473;BME280;44775;51.564;5.460;2023-02-17T00:09:32;101709.09;;;9.65;100.00
58473;BME280;44775;51.564;5.460;2023-02-17T00:11:57;101720.91;;;9.62;100.00
58473;BME280;44775;51.564;5.460;2023-02-17T00:14:22;101709.66;;;9.68;100.00
58473;BME280;44775;51.564;5.460;2023-02-17T00:16:48;101709.53;;;9.70;100.00
58473;BME280;44775;51.564;5.460;2023-02-17T00:19:13;101709.38;;;9.72;100.00
58473;BME280;44775;51.564;5.460;2023-02-17T00:21:53;101699.84;;;9.69;100.00
58473;BME280;44775;51.564;5.460;2023-02-17T00:24:19;101705.16;;;9.79;100.00
58473;BME280;44775;51.564;5.460;2023-02-17T00:26:45;101702.91;;;9.74;100.00
58473;BME280;44775;51.564;5.460;2023-02-17T00:29:10;101703.47;;;9.78;100.00
58473;BME280;44775;51.564;5.460;2023-02-17T00:31:35;101687.72;;;9.75;100.00
58473;BME280;44775;51.564;5.460;2023-02-17T00:34:01;101701.09;;;9.75;100.00
58473;BME280;44775;51.564;5.460;2023-02-17T00:36:26;101695.06;;;9.73;100.00
58473;BME280;44775;51.564;5.460;2023-02-17T00:38:53;101694.34;;;9.70;100.00
58473;BME280;44775;51.564;5.460;2023-02-17T00:41:19;101696.03;;;9.72;100.00
58473;BME280;44775;51.564;5.460;2023-02-17T00:43:45;101695.06;;;9.73;100.00
58473;BME280;44775;51.564;5.460;2023-02-17T00:46:10;101684.50;;;9.71;100.00
58473;BME280;44775;51.564;5.460;2023-02-17T00:48:35;101674.53;;;9.83;100.00
58473;BME280;44775;51.564;5.460;2023-02-17T00:51:01;101687.06;;;9.73;100.00
58473;BME280;44775;51.564;5.460;2023-02-17T00:53:26;101679.31;;;9.79;100.00
58473;BME280;44775;51.564;5.460;2023-02-17T00:55:52;101677.06;;;9.75;100.00
58473;BME280;44775;51.564;5.460;2023-02-17T00:58:17;101694.06;;;9.74;100.00
58473;BME280;44775;51.564;5.460;2023-02-17T01:00:42;101681.97;;;9.89;100.00
58473;BME280;44775;51.564;5.460;2023-02-17T01:03:08;101678.16;;;9.82;100.00
58473;BME280;44775;51.564;5.460;2023-02-17T01:05:38;101678.47;;;9.79;100.00
58473;BME280;44775;51.564;5.460;2023-02-17T01:08:04;101691.94;;;9.87;100.00
58473;BME280;44775;51.564;5.460;2023-02-17T01:10:29;101689.16;;;9.79;100.00
58473;BME280;44775;51.564;5.460;2023-02-17T01:12:54;101684.94;;;9.76;100.00
58473;BME280;44775;51.564;5.460;2023-02-17T01:15:20;101684.50;;;9.81;100.00
58473;BME280;44775;51.564;5.460;2023-02-17T01:17:45;101686.50;;;9.79;100.00
58473;BME280;44775;51.564;5.460;2023-02-17T01:20:10;101676.94;;;9.76;100.00
58473;BME280;44775;51.564;5.460;2023-02-17T01:22:37;101689.16;;;9.79;100.00
58473;BME280;44775;51.564;5.460;2023-02-17T01:25:03;101688.44;;;9.77;100.00
58473;BME280;44775;51.564;5.460;2023-02-17T01:27:29;101684.09;;;9.76;100.00
58473;BME280;44775;51.564;5.460;2023-02-17T01:29:54;101684.66;;;9.79;100.00
58473;BME280;44775;51.564;5.460;2023-02-17T01:32:19;101682.53;;;9.83;100.00
58473;BME280;44775;51.564;5.460;2023-02-17T01:34:45;101688.00;;;9.81;100.00
58473;BME280;44775;51.564;5.460;2023-02-17T01:37:10;101679.03;;;9.82;100.00
58473;BME280;44775;51.564;5.460;2023-02-17T01:39:35;101673.69;;;9.82;100.00
58473;BME280;44775;51.564;5.460;2023-02-17T01:42:01;101678.16;;;9.82;100.00
58473;BME280;44775;51.564;5.460;2023-02-17T01:44:26;101684.09;;;9.76;100.00
58473;BME280;44775;51.564;5.460;2023-02-17T01:46:53;101676.78;;;9.78;100.00
58473;BME280;44775;51.564;5.460;2023-02-17T01:52:15;101669.84;;;10.04;100.00
58473;BME280;44775;51.564;5.460;2023-02-17T01:54:52;101671.16;;;9.81;100.00
58473;BME280;44775;51.564;5.460;2023-02-17T01:57:22;101673.44;;;9.76;100.00
58473;BME280;44775;51.564;5.460;2023-02-17T01:59:49;101679.44;;;9.78;100.00
58473;BME280;44775;51.564;5.460;2023-02-17T02:02:15;101682.66;;;9.91;100.00
58473;BME280;44775;51.564;5.460;2023-02-17T02:04:43;101684.50;;;9.81;100.00
58473;BME280;44775;51.564;5.460;2023-02-17T02:07:13;101689.84;;;9.81;100.00
58473;BME280;44775;51.564;5.460;2023-02-17T02:09:46;101675.38;;;9.83;100.00
58473;BME280;44775;51.564;5.460;2023-02-17T02:12:39;101685.34;;;9.81;100.00
58473;BME280;44775;51.564;5.460;2023-02-17T02:15:20;101684.94;;;9.86;100.00
58473;BME280;44775;51.564;5.460;2023-02-17T02:18:27;101677.91;;;9.75;100.00
58473;BME280;44775;51.564;5.460;2023-02-17T02:21:12;101681.72;;;9.73;100.00
58473;BME280;44775;51.564;5.460;2023-02-17T02:23:52;101682.13;;;9.68;100.00
58473;BME280;44775;51.564;5.460;2023-02-17T02:29:40;101665.97;;;9.69;100.00
58473;BME280;44775;51.564;5.460;2023-02-17T02:32:42;101658.94;;;9.68;100.00
58473;BME280;44775;51.564;5.460;2023-02-17T02:37:59;101641.69;;;9.53;100.00
58473;BME280;44775;51.564;5.460;2023-02-17T02:40:29;101647.59;;;9.66;100.00
58473;BME280;44775;51.564;5.460;2023-02-17T02:42:58;101636.38;;;9.53;100.00
58473;BME280;44775;51.564;5.460;2023-02-17T02:45:25;101624.56;;;9.56;100.00
58473;BME280;44775;51.564;5.460;2023-02-17T02:47:55;101621.47;;;9.51;100.00
58473;BME280;44775;51.564;5.460;2023-02-17T02:53:27;101615.47;;;9.49;100.00
58473;BME280;44775;51.564;5.460;2023-02-17T02:56:09;101595.78;;;9.50;100.00
58473;BME280;44775;51.564;5.460;2023-02-17T02:58:57;101607.75;;;9.45;100.00
58473;BME280;44775;51.564;5.460;2023-02-17T03:01:46;101595.06;;;9.48;100.00
58473;BME280;44775;51.564;5.460;2023-02-17T03:04:29;101597.59;;;9.59;100.00
58473;BME280;44775;51.564;5.460;2023-02-17T03:07:20;101586.78;;;9.51;100.00
58473;BME280;44775;51.564;5.460;2023-02-17T03:09:51;101596.78;;;9.49;100.00
58473;BME280;44775;51.564;5.460;2023-02-17T03:12:17;101594.53;;;9.44;100.00
58473;BME280;44775;51.564;5.460;2023-02-17T03:14:43;101585.94;;;9.50;100.00
58473;BME280;44775;51.564;5.460;2023-02-17T03:17:09;101586.38;;;9.55;100.00
58473;BME280;44775;51.564;5.460;2023-02-17T03:19:34;101592.56;;;9.46;100.00
58473;BME280;44775;51.564;5.460;2023-02-17T03:22:11;101588.06;;;9.46;100.00
58473;BME280;44775;51.564;5.460;2023-02-17T03:24:41;101595.66;;;9.41;100.00
58473;BME280;44775;51.564;5.460;2023-02-17T03:27:06;101594.81;;;9.41;100.00
58473;BME280;44775;51.564;5.460;2023-02-17T03:29:31;101602.41;;;9.45;100.00
58473;BME280;44775;51.564;5.460;2023-02-17T03:31:57;101599.19;;;9.42;100.00
58473;BME280;44775;51.564;5.460;2023-02-17T03:34:22;101601.69;;;9.53;100.00
58473;BME280;44775;51.564;5.460;2023-02-17T03:36:47;101593.97;;;9.50;100.00
58473;BME280;44775;51.564;5.460;2023-02-17T03:39:13;101586.50;;;9.54;100.00
58473;BME280;44775;51.564;5.460;2023-02-17T03:41:38;101581.19;;;9.44;100.00
58473;BME280;44775;51.564;5.460;2023-02-17T03:44:03;101575.47;;;9.39;100.00
58473;BME280;44775;51.564;5.460;2023-02-17T03:46:29;101595.25;;;9.46;100.00
58473;BME280;44775;51.564;5.460;2023-02-17T03:48:54;101594.53;;;9.44;100.00
58473;BME280;44775;51.564;5.460;2023-02-17T03:51:21;101571.50;;;9.43;100.00
58473;BME280;44775;51.564;5.460;2023-02-17T03:53:47;101574.56;;;9.48;100.00
58473;BME280;44775;51.564;5.460;2023-02-17T03:56:13;101576.28;;;9.39;100.00
58473;BME280;44775;51.564;5.460;2023-02-17T03:58:39;101574.72;;;9.46;100.00
58473;BME280;44775;51.564;5.460;2023-02-17T04:01:06;101581.63;;;9.49;100.00
58473;BME280;44775;51.564;5.460;2023-02-17T04:03:32;101589.47;;;9.41;100.00
58473;BME280;44775;51.564;5.460;2023-02-17T04:05:58;101598.75;;;9.46;100.00
58473;BME280;44775;51.564;5.460;2023-02-17T04:08:24;101585.28;;;9.38;100.00
58473;BME280;44775;51.564;5.460;2023-02-17T04:10:53;101588.50;;;9.42;100.00
58473;BME280;44775;51.564;5.460;2023-02-17T04:13:19;101585.84;;;9.42;100.00
58473;BME280;44775;51.564;5.460;2023-02-17T04:15:44;101601.25;;;9.48;100.00
58473;BME280;44775;51.564;5.460;2023-02-17T04:18:09;101592.00;;;9.42;100.00
58473;BME280;44775;51.564;5.460;2023-02-17T04:20:35;101585.66;;;9.53;100.00
58473;BME280;44775;51.564;5.460;2023-02-17T04:23:00;101582.88;;;9.45;100.00
58473;BME280;44775;51.564;5.460;2023-02-17T04:25:25;101591.72;;;9.55;100.00
58473;BME280;44775;51.564;5.460;2023-02-17T04:27:51;101596.06;;;9.46;100.00
58473;BME280;44775;51.564;5.460;2023-02-17T04:30:16;101587.22;;;9.46;100.00
58473;BME280;44775;51.564;5.460;2023-02-17T04:32:41;101594.69;;;9.42;100.00
58473;BME280;44775;51.564;5.460;2023-02-17T04:35:07;101589.47;;;9.41;100.00
58473;BME280;44775;51.564;5.460;2023-02-17T04:37:32;101578.53;;;9.44;100.00
58473;BME280;44775;51.564;5.460;2023-02-17T04:39:57;101606.28;;;9.61;100.00
58473;BME280;44775;51.564;5.460;2023-02-17T04:42:23;101595.91;;;9.48;100.00
58473;BME280;44775;51.564;5.460;2023-02-17T04:44:48;101592.41;;;9.48;100.00
58473;BME280;44775;51.564;5.460;2023-02-17T04:47:13;101597.63;;;9.49;100.00
58473;BME280;44775;51.564;5.460;2023-02-17T04:49:38;101591.41;;;9.58;100.00
58473;BME280;44775;51.564;5.460;2023-02-17T04:52:04;101595.38;;;9.44;100.00
58473;BME280;44775;51.564;5.460;2023-02-17T04:54:29;101594.69;;;9.42;100.00
58473;BME280;44775;51.564;5.460;2023-02-17T04:56:54;101598.47;;;9.50;100.00
58473;BME280;44775;51.564;5.460;2023-02-17T04:59:20;101593.84;;;9.42;100.00
58473;BME280;44775;51.564;5.460;2023-02-17T05:01:45;101593.13;;;9.40;100.00
58473;BME280;44775;51.564;5.460;2023-02-17T05:04:10;101593.97;;;9.50;100.00
58473;BME280;44775;51.564;5.460;2023-02-17T05:06:36;101581.91;;;9.46;100.00
58473;BME280;44775;51.564;5.460;2023-02-17T05:09:01;101586.66;;;9.62;100.00
58473;BME280;44775;51.564;5.460;2023-02-17T05:11:26;101575.44;;;9.49;100.00
58473;BME280;44775;51.564;5.460;2023-02-17T05:13:51;101576.56;;;9.36;100.00
58473;BME280;44775;51.564;5.460;2023-02-17T05:16:17;101562.53;;;9.34;100.00
58473;BME280;44775;51.564;5.460;2023-02-17T05:18:42;101550.06;;;9.35;100.00
58473;BME280;44775;51.564;5.460;2023-02-17T05:21:07;101573.06;;;9.36;100.00
58473;BME280;44775;51.564;5.460;2023-02-17T05:23:32;101566.19;;;9.43;100.00
58473;BME280;44775;51.564;5.460;2023-02-17T05:25:58;101559.72;;;9.36;100.00
58473;BME280;44775;51.564;5.460;2023-02-17T05:28:23;101561.56;;;9.35;100.00
58473;BME280;44775;51.564;5.460;2023-02-17T05:30:49;101575.47;;;9.29;100.00
58473;BME280;44775;51.564;5.460;2023-02-17T05:33:15;101570.69;;;9.33;100.00
58473;BME280;44775;51.564;5.460;2023-02-17T05:35:40;101576.59;;;9.27;100.00
58473;BME280;44775;51.564;5.460;2023-02-17T05:38:05;101575.75;;;9.26;100.00
58473;BME280;44775;51.564;5.460;2023-02-17T05:40:31;101582.75;;;9.27;100.00
58473;BME280;44775;51.564;5.460;2023-02-17T05:42:56;101582.63;;;9.19;100.00
58473;BME280;44775;51.564;5.460;2023-02-17T05:45:22;101581.91;;;9.27;100.00
58473;BME280;44775;51.564;5.460;2023-02-17T05:47:47;101588.25;;;9.35;100.00
58473;BME280;44775;51.564;5.460;2023-02-17T05:50:13;101589.09;;;9.26;100.00
58473;BME280;44775;51.564;5.460;2023-02-17T05:52:38;101590.34;;;9.22;100.00
58473;BME280;44775;51.564;5.460;2023-02-17T05:55:04;101592.59;;;9.27;100.00
58473;BME280;44775;51.564;5.460;2023-02-17T05:57:29;101588.38;;;9.24;100.00
58473;BME280;44775;51.564;5.460;2023-02-17T05:59:55;101569.69;;;9.24;100.00
58473;BME280;44775;51.564;5.460;2023-02-17T06:02:20;101572.81;;;9.29;100.00
58473;BME280;44775;51.564;5.460;2023-02-17T06:04:45;101565.06;;;9.26;100.00
58473;BME280;44775;51.564;5.460;2023-02-17T06:07:10;101572.94;;;9.28;100.00
58473;BME280;44775;51.564;5.460;2023-02-17T06:09:36;101572.50;;;9.32;100.00
58473;BME280;44775;51.564;5.460;2023-02-17T06:12:01;101549.06;;;9.36;100.00
58473;BME280;44775;51.564;5.460;2023-02-17T06:14:26;101565.19;;;9.34;100.00
58473;BME280;44775;51.564;5.460;2023-02-17T06:16:52;101576.84;;;9.33;100.00
58473;BME280;44775;51.564;5.460;2023-02-17T06:19:17;101569.56;;;9.26;100.00
58473;BME280;44775;51.564;5.460;2023-02-17T06:21:43;101556.38;;;9.24;100.00
58473;BME280;44775;51.564;5.460;2023-02-17T06:24:08;101559.88;;;9.25;100.00
58473;BME280;44775;51.564;5.460;2023-02-17T06:26:34;101572.25;;;9.26;100.00
58473;BME280;44775;51.564;5.460;2023-02-17T06:28:59;101572.53;;;9.22;100.00
58473;BME280;44775;51.564;5.460;2023-02-17T06:31:24;101576.59;;;9.27;100.00
58473;BME280;44775;51.564;5.460;2023-02-17T06:33:49;101566.63;;;9.29;100.00
58473;BME280;44775;51.564;5.460;2023-02-17T06:36:15;101555.53;;;9.23;100.00
58473;BME280;44775;51.564;5.460;2023-02-17T06:38:40;101565.06;;;9.36;100.00
58473;BME280;44775;51.564;5.460;2023-02-17T06:41:05;101552.00;;;9.33;100.00
58473;BME280;44775;51.564;5.460;2023-02-17T06:43:31;101563.97;;;9.29;100.00
58473;BME280;44775;51.564;5.460;2023-02-17T06:45:56;101547.69;;;9.32;100.00
58473;BME280;44775;51.564;5.460;2023-02-17T06:48:21;101551.03;;;9.34;100.00
58473;BME280;44775;51.564;5.460;2023-02-17T06:50:48;101556.06;;;9.37;100.00
58473;BME280;44775;51.564;5.460;2023-02-17T06:53:13;101548.06;;;9.37;100.00
58473;BME280;44775;51.564;5.460;2023-02-17T06:55:39;101564.34;;;9.34;100.00
58473;BME280;44775;51.564;5.460;2023-02-17T06:58:04;101569.84;;;9.42;100.00
58473;BME280;44775;51.564;5.460;2023-02-17T07:00:29;101580.09;;;9.37;100.00
58473;BME280;44775;51.564;5.460;2023-02-17T07:02:55;101574.31;;;9.41;100.00
58473;BME280;44775;51.564;5.460;2023-02-17T07:05:20;101576.84;;;9.43;100.00
58473;BME280;44775;51.564;5.460;2023-02-17T07:07:45;101567.28;;;9.40;100.00
58473;BME280;44775;51.564;5.460;2023-02-17T07:10:11;101571.50;;;9.43;100.00
58473;BME280;44775;51.564;5.460;2023-02-17T07:12:36;101571.06;;;9.48;100.00
58473;BME280;44775;51.564;5.460;2023-02-17T07:15:02;101565.16;;;9.54;100.00
58473;BME280;44775;51.564;5.460;2023-02-17T07:17:27;101567.25;;;9.60;100.00
58473;BME280;44775;51.564;5.460;2023-02-17T07:19:53;101569.22;;;9.58;100.00
58473;BME280;44775;51.564;5.460;2023-02-17T07:22:18;101555.19;;;9.56;100.00
58473;BME280;44775;51.564;5.460;2023-02-17T07:24:43;101577.94;;;9.60;100.00
58473;BME280;44775;51.564;5.460;2023-02-17T07:27:08;101570.31;;;9.65;100.00
58473;BME280;44775;51.564;5.460;2023-02-17T07:29:34;101556.53;;;9.79;100.00
58473;BME280;44775;51.564;5.460;2023-02-17T07:31:59;101557.78;;;9.75;100.00
58473;BME280;44775;51.564;5.460;2023-02-17T07:34:25;101554.56;;;9.72;100.00
58473;BME280;44775;51.564;5.460;2023-02-17T07:36:50;101564.94;;;9.75;100.00
58473;BME280;44775;51.564;5.460;2023-02-17T07:39:15;101557.75;;;9.85;100.00
58473;BME280;44775;51.564;5.460;2023-02-17T07:41:41;101546.41;;;9.83;100.00
58473;BME280;44775;51.564;5.460;2023-02-17T07:44:06;101551.44;;;9.86;100.00
58473;BME280;44775;51.564;5.460;2023-02-17T07:46:31;101553.38;;;9.93;100.00
58473;BME280;44775;51.564;5.460;2023-02-17T07:48:57;101550.41;;;9.97;100.00
58473;BME280;44775;51.564;5.460;2023-02-17T07:51:23;101560.94;;;9.98;100.00
58473;BME280;44775;51.564;5.460;2023-02-17T07:53:49;101552.13;;;10.15;100.00
58473;BME280;44775;51.564;5.460;2023-02-17T07:56:18;101550.22;;;10.08;100.00
58473;BME280;44775;51.564;5.460;2023-02-17T07:58:44;101579.47;;;10.09;100.00
58473;BME280;44775;51.564;5.460;2023-02-17T08:01:21;101559.31;;;10.15;100.00
58473;BME280;44775;51.564;5.460;2023-02-17T08:03:47;101560.56;;;10.21;100.00
58473;BME280;44775;51.564;5.460;2023-02-17T08:06:19;101548.47;;;10.26;100.00
58473;BME280;44775;51.564;5.460;2023-02-17T08:08:46;101562.75;;;10.35;100.00
58473;BME280;44775;51.564;5.460;2023-02-17T08:11:30;101575.28;;;10.25;100.00
58473;BME280;44775;51.564;5.460;2023-02-17T08:14:14;101564.75;;;10.33;100.00
58473;BME280;44775;51.564;5.460;2023-02-17T08:16:39;101565.41;;;10.35;100.00
58473;BME280;44775;51.564;5.460;2023-02-17T08:19:05;101563.44;;;10.37;100.00
58473;BME280;44775;51.564;5.460;2023-02-17T08:21:30;101559.31;;;10.43;100.00
58473;BME280;44775;51.564;5.460;2023-02-17T08:23:56;101552.84;;;10.45;100.00
58473;BME280;44775;51.564;5.460;2023-02-17T08:26:21;101559.31;;;10.43;100.00
58473;BME280;44775;51.564;5.460;2023-02-17T08:28:47;101567.97;;;10.54;100.00
58473;BME280;44775;51.564;5.460;2023-02-17T08:33:40;101573.38;;;10.45;100.00
58473;BME280;44775;51.564;5.460;2023-02-17T08:36:06;101576.00;;;10.54;100.00
58473;BME280;44775;51.564;5.460;2023-02-17T08:38:33;101577.78;;;10.63;100.00
58473;BME280;44775;51.564;5.460;2023-02-17T08:40:58;101583.72;;;10.57;100.00
58473;BME280;44775;51.564;5.460;2023-02-17T08:43:23;101586.16;;;10.69;100.00
58473;BME280;44775;51.564;5.460;2023-02-17T08:45:48;101586.47;;;10.66;100.00
58473;BME280;44775;51.564;5.460;2023-02-17T08:48:14;101580.88;;;10.59;100.00
58473;BME280;44775;51.564;5.460;2023-02-17T08:50:39;101581.88;;;10.76;100.00
58473;BME280;44775;51.564;5.460;2023-02-17T08:53:04;101580.38;;;10.73;100.00
58473;BME280;44775;51.564;5.460;2023-02-17T08:55:29;101560.50;;;10.76;100.00
58473;BME280;44775;51.564;5.460;2023-02-17T08:57:55;101586.25;;;10.77;100.00
58473;BME280;44775;51.564;5.460;2023-02-17T09:00:20;101580.44;;;10.81;100.00
58473;BME280;44775;51.564;5.460;2023-02-17T09:02:45;101584.50;;;10.85;100.00
58473;BME280;44775;51.564;5.460;2023-02-17T09:05:12;101587.47;;;10.82;100.00
58473;BME280;44775;51.564;5.460;2023-02-17T09:07:38;101596.88;;;11.04;100.00
58473;BME280;44775;51.564;5.460;2023-02-17T09:10:05;101602.91;;;11.06;100.00
58473;BME280;44775;51.564;5.460;2023-02-17T09:12:31;101605.41;;;11.26;100.00
58473;BME280;44775;51.564;5.460;2023-02-17T09:14:56;101605.72;;;11.23;100.00
58473;BME280;44775;51.564;5.460;2023-02-17T09:17:22;101619.41;;;11.20;100.00
58473;BME280;44775;51.564;5.460;2023-02-17T09:19:47;101626.47;;;11.21;100.00
58473;BME280;44775;51.564;5.460;2023-02-17T09:22:13;101632.03;;;11.27;100.00
58473;BME280;44775;51.564;5.460;2023-02-17T09:24:41;101630.94;;;11.20;100.00
58473;BME280;44775;51.564;5.460;2023-02-17T09:27:06;101638.69;;;11.41;100.00
58473;BME280;44775;51.564;5.460;2023-02-17T09:29:32;101651.75;;;11.44;100.00
58473;BME280;44775;51.564;5.460;2023-02-17T09:31:57;101652.38;;;11.38;100.00
58473;BME280;44775;51.564;5.460;2023-02-17T09:34:22;101647.75;;;11.48;100.00
58473;BME280;44775;51.564;5.460;2023-02-17T09:36:48;101644.09;;;11.49;100.00
58473;BME280;44775;51.564;5.460;2023-02-17T09:39:14;101646.22;;;11.46;100.00
58473;BME280;44775;51.564;5.460;2023-02-17T09:41:41;101643.72;;;11.44;100.00
58473;BME280;44775;51.564;5.460;2023-02-17T09:44:19;101637.84;;;11.85;100.00
58473;BME280;44775;51.564;5.460;2023-02-17T09:46:50;101632.44;;;11.58;100.00
58473;BME280;44775;51.564;5.460;2023-02-17T09:49:21;101643.81;;;11.61;100.00
58473;BME280;44775;51.564;5.460;2023-02-17T09:54:30;101643.91;;;11.69;100.00
58473;BME280;44775;51.564;5.460;2023-02-17T09:57:00;101644.22;;;11.66;100.00
58473;BME280;44775;51.564;5.460;2023-02-17T09:59:35;101651.66;;;11.80;100.00
58473;BME280;44775;51.564;5.460;2023-02-17T10:02:15;101646.06;;;11.65;100.00
58473;BME280;44775;51.564;5.460;2023-02-17T10:04:45;101646.63;;;11.77;100.00
58473;BME280;44775;51.564;5.460;2023-02-17T10:07:27;101651.34;;;11.83;100.00
58473;BME280;44775;51.564;5.460;2023-02-17T10:10:03;101656.72;;;11.83;100.00
58473;BME280;44775;51.564;5.460;2023-02-17T10:12:33;101649.50;;;11.83;100.00
58473;BME280;44775;51.564;5.460;2023-02-17T10:15:08;101656.47;;;11.94;100.00
58473;BME280;44775;51.564;5.460;2023-02-17T10:17:45;101648.53;;;12.11;100.00
58473;BME280;44775;51.564;5.460;2023-02-17T10:20:14;101646.44;;;12.22;100.00
58473;BME280;44775;51.564;5.460;2023-02-17T10:22:44;101644.75;;;12.21;100.00
58473;BME280;44775;51.564;5.460;2023-02-17T10:25:19;101643.97;;;12.29;100.00
58473;BME280;44775;51.564;5.460;2023-02-17T10:27:54;101641.91;;;12.23;100.00
58473;BME280;44775;51.564;5.460;2023-02-17T10:30:32;101657.81;;;12.24;100.00
58473;BME280;44775;51.564;5.460;2023-02-17T10:33:11;101649.72;;;12.42;100.00
58473;BME280;44775;51.564;5.460;2023-02-17T10:35:47;101649.66;;;12.34;100.00
58473;BME280;44775;51.564;5.460;2023-02-17T10:38:17;101653.69;;;12.30;100.00
58473;BME280;44775;51.564;5.460;2023-02-17T10:40:49;101639.66;;;12.44;100.00
58473;BME280;44775;51.564;5.460;2023-02-17T10:43:21;101659.97;;;12.21;100.00
58473;BME280;44775;51.564;5.460;2023-02-17T10:45:49;101675.75;;;12.24;100.00
58473;BME280;44775;51.564;5.460;2023-02-17T10:48:19;101665.50;;;12.19;100.00
58473;BME280;44775;51.564;5.460;2023-02-17T10:50:46;101677.78;;;12.30;100.00
58473;BME280;44775;51.564;5.460;2023-02-17T10:53:14;101671.72;;;12.20;100.00
58473;BME280;44775;51.564;5.460;2023-02-17T11:01:06;101680.75;;;12.19;100.00
58473;BME280;44775;51.564;5.460;2023-02-17T11:03:32;101668.09;;;12.29;100.00
58473;BME280;44775;51.564;5.460;2023-02-17T11:06:00;101684.50;;;12.34;100.00
58473;BME280;44775;51.564;5.460;2023-02-17T11:08:40;101674.59;;;12.26;100.00
58473;BME280;44775;51.564;5.460;2023-02-17T11:11:22;101665.03;;;12.24;100.00
58473;BME280;44775;51.564;5.460;2023-02-17T11:14:26;101664.88;;;12.25;100.00
58473;BME280;44775;51.564;5.460;2023-02-17T11:16:58;101661.59;;;12.05;100.00
58473;BME280;44775;51.564;5.460;2023-02-17T11:19:27;101671.69;;;12.12;100.00
58473;BME280;44775;51.564;5.460;2023-02-17T11:21:54;101665.00;;;12.16;100.00
58473;BME280;44775;51.564;5.460;2023-02-17T11:24:20;101654.09;;;12.17;100.00
58473;BME280;44775;51.564;5.460;2023-02-17T11:27:03;101647.91;;;12.17;100.00
58473;BME280;44775;51.564;5.460;2023-02-17T11:29:29;101634.88;;;12.22;100.00
58473;BME280;44775;51.564;5.460;2023-02-17T11:32:03;101645.47;;;12.32;100.00
58473;BME280;44775;51.564;5.460;2023-02-17T11:34:32;101636.63;;;12.39;100.00
58473;BME280;44775;51.564;5.460;2023-02-17T11:39:45;101629.63;;;12.55;100.00
58473;BME280;44775;51.564;5.460;2023-02-17T11:42:27;101625.50;;;12.68;100.00
58473;BME280;44775;51.564;5.460;2023-02-17T11:44:55;101640.22;;;12.64;100.00
58473;BME280;44775;51.564;5.460;2023-02-17T11:49:53;101620.50;;;12.73;100.00
58473;BME280;44775;51.564;5.460;2023-02-17T11:55:12;101623.00;;;12.67;100.00
58473;BME280;44775;51.564;5.460;2023-02-17T11:58:10;101626.03;;;12.80;100.00
58473;BME280;44775;51.564;5.460;2023-02-17T12:01:00;101636.72;;;12.72;100.00
58473;BME280;44775;51.564;5.460;2023-02-17T12:11:31;101646.41;;;12.57;100.00
58473;BME280;44775;51.564;5.460;2023-02-17T12:17:04;101641.34;;;12.45;100.00
58473;BME280;44775;51.564;5.460;2023-02-17T12:23:09;101643.75;;;12.57;100.00
58473;BME280;44775;51.564;5.460;2023-02-17T12:25:54;101647.03;;;12.42;100.00
58473;BME280;44775;51.564;5.460;2023-02-17T12:28:38;101663.00;;;12.52;100.00
58473;BME280;44775;51.564;5.460;2023-02-17T12:36:26;101679.03;;;12.44;100.00
58473;BME280;44775;51.564;5.460;2023-02-17T12:39:02;101669.84;;;12.46;100.00
58473;BME280;44775;51.564;5.460;2023-02-17T12:41:35;101670.59;;;12.31;100.00
58473;BME280;44775;51.564;5.460;2023-02-17T12:44:08;101665.09;;;12.32;100.00
58473;BME280;44775;51.564;5.460;2023-02-17T12:46:44;101671.28;;;12.33;100.00
58473;BME280;44775;51.564;5.460;2023-02-17T12:49:15;101679.97;;;12.35;100.00
58473;BME280;44775;51.564;5.460;2023-02-17T12:52:17;101669.84;;;12.55;100.00
58473;BME280;44775;51.564;5.460;2023-02-17T12:57:48;101677.44;;;12.59;100.00
58473;BME280;44775;51.564;5.460;2023-02-17T13:00:26;101685.59;;;12.49;100.00
58473;BME280;44775;51.564;5.460;2023-02-17T13:02:58;101703.97;;;12.36;100.00
58473;BME280;44775;51.564;5.460;2023-02-17T13:05:49;101701.63;;;12.41;100.00
58473;BME280;44775;51.564;5.460;2023-02-17T13:08:17;101707.28;;;12.30;100.00
58473;BME280;44775;51.564;5.460;2023-02-17T13:10:45;101704.75;;;12.28;100.00
58473;BME280;44775;51.564;5.460;2023-02-17T13:13:33;101681.81;;;12.26;100.00
58473;BME280;44775;51.564;5.460;2023-02-17T13:18:37;101711.22;;;12.18;100.00
58473;BME280;44775;51.564;5.460;2023-02-17T13:24:11;101718.94;;;12.21;100.00
58473;BME280;44775;51.564;5.460;2023-02-17T13:26:41;101723.88;;;12.08;100.00
58473;BME280;44775;51.564;5.460;2023-02-17T13:29:18;101723.88;;;12.08;100.00
58473;BME280;44775;51.564;5.460;2023-02-17T13:31:50;101719.47;;;12.24;100.00
58473;BME280;44775;51.564;5.460;2023-02-17T13:34:43;101724.09;;;12.14;100.00
58473;BME280;44775;51.564;5.460;2023-02-17T13:37:23;101734.81;;;12.14;100.00
58473;BME280;44775;51.564;5.460;2023-02-17T13:39:49;101743.88;;;11.95;100.00
58473;BME280;44775;51.564;5.460;2023-02-17T13:42:40;101744.88;;;11.94;100.00
58473;BME280;44775;51.564;5.460;2023-02-17T13:45:19;101748.19;;;11.88;100.00
58473;BME280;44775;51.564;5.460;2023-02-17T13:47:45;101763.00;;;11.82;100.00
58473;BME280;44775;51.564;5.460;2023-02-17T13:50:37;101762.59;;;11.77;100.00
58473;BME280;44775;51.564;5.460;2023-02-17T13:53:30;101762.94;;;11.92;100.00
58473;BME280;44775;51.564;5.460;2023-02-17T13:56:02;101765.75;;;11.73;100.00